Time;durP1;ratioP1;P1;durP2;ratioP2;P2;SDS_P1;SDS_P2;PMS_P1;PMS_P2;Temp;Humidity;BMP_temperature;BMP_pressure;BME280_temperature;BME280_humidity;BME280_pressure;Samples;Min_cycle;Max_cycle;Signal;HPM_P1;HPM_P2
2021/01/17 00:02:20;;;;;;;30.73;21.70;;;2.80;91.00;;;;;;5092988;28;20754;-56
2021/01/17 00:04:47;;;;;;;24.75;18.50;;;3.00;91.10;;;;;;5093398;28;20203;-56
2021/01/17 00:07:13;;;;;;;27.60;19.80;;;3.00;91.00;;;;;;5093461;28;20243;-58
2021/01/17 00:09:40;;;;;;;26.10;19.67;;;3.00;90.90;;;;;;5084408;28;20257;-57
2021/01/17 00:12:08;;;;;;;24.65;20.35;;;3.10;90.80;;;;;;5053178;28;20264;-59
2021/01/17 00:14:36;;;;;;;25.98;18.38;;;3.10;90.60;;;;;;5052773;28;20246;-56
2021/01/17 00:17:03;;;;;;;30.35;20.70;;;3.10;90.50;;;;;;5076813;28;20237;-57
2021/01/17 00:19:29;;;;;;;30.80;20.90;;;3.10;90.60;;;;;;5092544;28;20308;-56
2021/01/17 00:21:56;;;;;;;27.52;19.00;;;3.20;90.80;;;;;;5092540;28;20743;-57
2021/01/17 00:24:23;;;;;;;25.42;17.80;;;3.20;90.60;;;;;;5092375;28;20237;-56
2021/01/17 00:26:50;;;;;;;29.60;20.33;;;3.10;90.60;;;;;;5089388;28;20245;-57
2021/01/17 00:29:17;;;;;;;26.52;20.13;;;3.10;90.60;;;;;;5071177;28;20640;-57
2021/01/17 00:31:44;;;;;;;24.23;17.77;;;3.10;90.70;;;;;;5072235;28;20222;-56
2021/01/17 00:34:11;;;;;;;27.63;21.00;;;3.00;90.70;;;;;;5071798;28;20240;-57
2021/01/17 00:36:38;;;;;;;25.95;18.40;;;3.00;90.90;;;;;;5072031;28;20249;-59
2021/01/17 00:39:06;;;;;;;28.73;18.73;;;3.10;91.10;;;;;;5071864;28;20224;-56
2021/01/17 00:41:33;;;;;;;24.27;19.17;;;3.10;91.00;;;;;;5070941;28;20225;-56
2021/01/17 00:44:00;;;;;;;22.67;19.10;;;3.20;90.90;;;;;;5084059;28;20233;-57
2021/01/17 00:46:27;;;;;;;27.08;19.80;;;3.10;91.00;;;;;;5090358;28;20220;-56
2021/01/17 00:48:54;;;;;;;25.63;18.25;;;3.10;90.80;;;;;;5091657;28;20241;-57
2021/01/17 00:51:21;;;;;;;25.17;17.42;;;3.20;91.00;;;;;;5070023;28;20198;-56
2021/01/17 00:53:48;;;;;;;25.88;18.90;;;3.10;90.80;;;;;;5085308;28;20232;-59
2021/01/17 00:56:14;;;;;;;22.55;16.95;;;3.20;90.90;;;;;;5091996;28;20569;-56
2021/01/17 00:58:41;;;;;;;25.85;18.75;;;3.20;90.90;;;;;;5091323;28;20707;-57
2021/01/17 01:01:08;;;;;;;25.70;17.70;;;3.20;90.90;;;;;;5092168;28;20261;-55
2021/01/17 01:03:34;;;;;;;22.65;16.20;;;3.20;90.90;;;;;;5091611;28;20228;-56
2021/01/17 01:06:02;;;;;;;27.30;19.90;;;3.20;90.80;;;;;;5091956;28;20204;-56
2021/01/17 01:08:29;;;;;;;27.00;16.90;;;3.10;91.10;;;;;;5091353;28;20255;-55
2021/01/17 01:10:56;;;;;;;23.52;17.10;;;3.00;91.20;;;;;;5087120;28;20222;-55
2021/01/17 01:13:22;;;;;;;25.02;20.73;;;3.00;91.50;;;;;;5071441;28;20578;-55
2021/01/17 01:15:49;;;;;;;26.35;18.25;;;3.00;91.60;;;;;;5071610;28;20242;-57
2021/01/17 01:18:16;;;;;;;26.02;19.00;;;3.00;91.80;;;;;;5070361;28;20218;-56
2021/01/17 01:20:43;;;;;;;25.67;19.95;;;3.00;91.80;;;;;;5071394;28;20246;-55
2021/01/17 01:23:10;;;;;;;26.92;20.13;;;3.00;91.90;;;;;;5080351;28;20237;-56
2021/01/17 01:25:37;;;;;;;24.83;18.30;;;3.00;91.90;;;;;;5071169;28;20234;-57
2021/01/17 01:28:04;;;;;;;23.25;17.08;;;2.90;92.10;;;;;;5068927;28;20564;-56
2021/01/17 01:30:31;;;;;;;24.58;17.00;;;3.00;92.40;;;;;;5071193;28;20265;-57
2021/01/17 01:32:58;;;;;;;31.85;19.77;;;3.00;92.40;;;;;;5070885;28;20232;-56
2021/01/17 01:35:27;;;;;;;21.90;17.90;;;3.10;92.40;;;;;;5071008;28;20237;-58
2021/01/17 01:37:53;;;;;;;26.85;19.80;;;3.10;92.30;;;;;;5071175;28;20760;-57
2021/01/17 01:40:21;;;;;;;26.50;18.45;;;3.10;92.50;;;;;;5082048;28;20766;-56
2021/01/17 01:42:48;;;;;;;21.08;17.70;;;3.10;92.30;;;;;;5098335;28;20239;-58
2021/01/17 01:45:15;;;;;;;27.25;19.95;;;3.10;92.30;;;;;;5097943;28;20240;-56
2021/01/17 01:47:41;;;;;;;29.35;19.63;;;3.10;92.30;;;;;;5097813;28;20229;-56
2021/01/17 01:50:09;;;;;;;24.58;19.50;;;3.10;92.20;;;;;;5092770;28;20267;-57
2021/01/17 01:52:36;;;;;;;22.27;16.88;;;3.20;92.20;;;;;;5081871;28;21321;-57
2021/01/17 01:55:03;;;;;;;28.27;16.77;;;3.10;91.90;;;;;;5076905;28;20267;-57
2021/01/17 01:57:31;;;;;;;26.30;18.85;;;3.10;91.80;;;;;;5077615;28;20205;-57
2021/01/17 01:59:58;;;;;;;20.67;15.98;;;3.10;91.90;;;;;;5077072;28;20689;-58
2021/01/17 02:02:24;;;;;;;25.38;17.80;;;3.10;91.90;;;;;;5077997;28;20227;-58
2021/01/17 02:04:51;;;;;;;24.73;19.33;;;3.10;91.90;;;;;;5077463;28;20202;-58
2021/01/17 02:07:48;;;;;;;21.05;15.40;;;3.10;92.30;;;;;;5095059;28;20579;-58
2021/01/17 02:10:16;;;;;;;23.55;16.15;;;3.10;92.00;;;;;;5097739;28;20268;-56
2021/01/17 02:12:46;;;;;;;23.10;16.70;;;3.20;91.90;;;;;;5097853;28;20213;-57
2021/01/17 02:15:18;;;;;;;24.67;17.55;;;3.20;91.80;;;;;;5097813;28;20241;-55
2021/01/17 02:17:45;;;;;;;22.17;16.92;;;3.20;91.70;;;;;;5097736;28;20232;-54
2021/01/17 02:20:14;;;;;;;20.80;16.00;;;3.30;91.60;;;;;;5097504;28;20253;-59
2021/01/17 02:22:45;;;;;;;18.45;15.40;;;3.30;91.40;;;;;;5094552;28;20235;-57
2021/01/17 02:25:13;;;;;;;23.20;17.50;;;3.30;91.40;;;;;;5077277;28;20241;-57
2021/01/17 02:27:40;;;;;;;23.58;16.58;;;3.30;91.40;;;;;;5077710;28;20247;-56
2021/01/17 02:30:08;;;;;;;26.63;18.48;;;3.30;91.30;;;;;;5082835;28;20259;-57
2021/01/17 02:32:37;;;;;;;19.95;15.13;;;3.30;91.40;;;;;;5098007;28;20243;-56
2021/01/17 02:35:04;;;;;;;22.60;17.10;;;3.40;91.40;;;;;;5090694;28;20305;-57
2021/01/17 02:37:35;;;;;;;25.33;17.00;;;3.40;91.40;;;;;;5076856;28;20757;-57
2021/01/17 02:40:04;;;;;;;24.77;16.60;;;3.40;91.20;;;;;;5077420;28;20605;-56
2021/01/17 02:42:32;;;;;;;18.52;15.10;;;3.40;91.20;;;;;;5077417;28;20234;-58
2021/01/17 02:44:59;;;;;;;27.75;18.63;;;3.40;91.00;;;;;;5076653;28;20214;-57
2021/01/17 02:47:26;;;;;;;24.55;18.20;;;3.30;90.80;;;;;;5076735;28;20230;-57
2021/01/17 02:49:53;;;;;;;26.15;20.10;;;3.30;90.90;;;;;;5077141;28;20645;-56
2021/01/17 02:52:23;;;;;;;24.88;16.90;;;3.20;90.90;;;;;;5090383;28;20253;-56
2021/01/17 02:54:50;;;;;;;25.48;19.27;;;3.20;91.10;;;;;;5075690;28;20245;-58
2021/01/17 02:57:17;;;;;;;23.17;17.58;;;3.20;91.40;;;;;;5074059;28;20236;-58
2021/01/17 02:59:50;;;;;;;24.85;20.20;;;3.20;91.30;;;;;;5073595;28;20337;-57
2021/01/17 03:02:16;;;;;;;23.85;17.77;;;3.20;91.50;;;;;;5074053;28;20245;-57
2021/01/17 03:04:45;;;;;;;19.67;12.43;;;3.20;91.30;;;;;;5073561;28;20245;-57
2021/01/17 03:07:13;;;;;;;25.13;18.67;;;3.20;91.10;;;;;;5072950;28;20255;-58
2021/01/17 03:09:41;;;;;;;30.02;21.65;;;3.20;91.20;;;;;;5073778;28;20233;-56
2021/01/17 03:12:08;;;;;;;29.05;21.15;;;3.20;91.30;;;;;;5073867;28;20241;-57
2021/01/17 03:14:36;;;;;;;26.05;20.38;;;3.20;91.50;;;;;;5073342;28;20232;-58
2021/01/17 03:17:04;;;;;;;29.90;21.55;;;3.20;91.30;;;;;;5072735;28;20245;-58
2021/01/17 03:19:31;;;;;;;27.77;18.85;;;3.20;91.20;;;;;;5069919;28;20244;-58
2021/01/17 03:21:58;;;;;;;27.08;19.98;;;3.20;91.30;;;;;;5074108;28;20237;-57
2021/01/17 03:24:24;;;;;;;26.70;20.20;;;3.20;91.00;;;;;;5073918;28;20226;-57
2021/01/17 03:26:51;;;;;;;29.95;21.13;;;3.20;90.90;;;;;;5073072;28;20239;-59
2021/01/17 03:29:18;;;;;;;28.75;22.60;;;3.20;91.20;;;;;;5084559;28;20266;-56
2021/01/17 03:31:45;;;;;;;25.95;19.58;;;3.20;91.00;;;;;;5090718;28;20575;-56
2021/01/17 03:34:12;;;;;;;27.52;20.80;;;3.30;91.10;;;;;;5072821;28;20725;-56
2021/01/17 03:36:39;;;;;;;23.17;18.85;;;3.30;91.10;;;;;;5074281;28;20228;-57
2021/01/17 03:39:06;;;;;;;29.90;23.52;;;3.30;90.80;;;;;;5086512;28;20209;-57
2021/01/17 03:41:33;;;;;;;29.83;22.30;;;3.30;90.80;;;;;;5099695;28;20206;-56
2021/01/17 03:43:59;;;;;;;25.90;20.92;;;3.30;90.90;;;;;;5088996;28;20207;-56
2021/01/17 03:46:27;;;;;;;27.88;19.75;;;3.30;90.90;;;;;;5073951;28;20615;-56
2021/01/17 03:48:54;;;;;;;24.63;20.00;;;3.40;90.80;;;;;;5073136;28;20230;-56
2021/01/17 03:51:22;;;;;;;24.80;19.23;;;3.30;90.50;;;;;;5073367;28;20699;-55
2021/01/17 03:53:49;;;;;;;25.35;17.35;;;3.30;90.60;;;;;;5068968;28;20619;-55
2021/01/17 03:56:17;;;;;;;26.67;18.75;;;3.30;90.70;;;;;;5067656;28;20230;-56
2021/01/17 03:58:43;;;;;;;29.42;22.05;;;3.20;90.80;;;;;;5068076;28;20717;-56
2021/01/17 04:01:10;;;;;;;28.90;20.83;;;3.20;91.00;;;;;;5072514;28;20250;-57
2021/01/17 04:03:37;;;;;;;30.37;21.37;;;3.30;91.30;;;;;;5071791;28;20234;-56
2021/01/17 04:06:04;;;;;;;24.55;19.02;;;3.30;91.10;;;;;;5072871;28;20622;-57
2021/01/17 04:08:32;;;;;;;28.45;19.17;;;3.30;91.20;;;;;;5073241;28;20210;-56
2021/01/17 04:10:59;;;;;;;27.23;20.67;;;3.30;91.30;;;;;;5073804;28;20253;-56
2021/01/17 04:13:25;;;;;;;29.00;22.73;;;3.40;91.20;;;;;;5072082;28;20624;-57
2021/01/17 04:15:52;;;;;;;26.95;21.80;;;3.40;91.10;;;;;;5072319;28;20198;-57
2021/01/17 04:18:19;;;;;;;32.25;20.95;;;3.40;91.00;;;;;;5071953;28;20295;-57
2021/01/17 04:20:47;;;;;;;30.50;22.73;;;3.30;91.20;;;;;;5071950;28;20233;-56
2021/01/17 04:23:14;;;;;;;28.70;22.83;;;3.20;91.30;;;;;;5072162;28;20237;-57
2021/01/17 04:25:41;;;;;;;22.25;16.48;;;3.20;91.50;;;;;;5071507;28;20233;-56
2021/01/17 04:28:09;;;;;;;28.05;20.98;;;3.20;91.60;;;;;;5072044;28;20572;-57
2021/01/17 04:30:36;;;;;;;26.08;19.23;;;3.10;91.60;;;;;;5101125;22;20284;-50
2021/01/17 04:33:03;;;;;;;27.10;18.83;;;3.10;91.70;;;;;;5082119;28;20250;-50
2021/01/17 04:35:30;;;;;;;34.03;22.92;;;3.20;91.80;;;;;;5084426;28;20682;-49
2021/01/17 04:37:57;;;;;;;32.63;23.27;;;3.20;91.60;;;;;;5079393;28;20229;-50
2021/01/17 04:40:24;;;;;;;35.47;24.20;;;3.20;91.60;;;;;;5080325;28;20646;-48
2021/01/17 04:42:52;;;;;;;27.90;20.77;;;3.20;91.70;;;;;;5078743;28;20233;-50
2021/01/17 04:45:21;;;;;;;28.10;20.08;;;3.20;91.80;;;;;;5077385;28;20229;-48
2021/01/17 04:47:47;;;;;;;33.45;23.73;;;3.10;91.80;;;;;;5077917;28;20233;-48
2021/01/17 04:50:16;;;;;;;34.70;22.15;;;3.20;91.90;;;;;;5078876;28;20262;-48
2021/01/17 04:52:50;;;;;;;27.00;20.25;;;3.10;91.90;;;;;;5068762;28;20277;-47
2021/01/17 04:55:17;;;;;;;31.10;19.33;;;3.20;92.00;;;;;;5078329;28;20315;-48
2021/01/17 04:57:50;;;;;;;26.58;19.50;;;3.20;91.90;;;;;;5063569;28;20240;-48
2021/01/17 05:00:22;;;;;;;29.77;22.88;;;3.10;91.80;;;;;;5078622;28;20616;-47
2021/01/17 05:02:52;;;;;;;29.90;20.63;;;3.10;92.10;;;;;;5079627;28;20201;-48
2021/01/17 05:05:21;;;;;;;29.50;20.40;;;3.10;92.00;;;;;;5079527;28;20224;-48
2021/01/17 05:07:53;;;;;;;26.20;20.05;;;3.00;92.30;;;;;;5060869;28;20227;-48
2021/01/17 05:10:32;;;;;;;21.27;13.68;;;3.10;92.50;;;;;;5078480;28;20294;-48
2021/01/17 05:13:12;;;;;;;27.17;21.40;;;3.00;92.30;;;;;;5081166;28;20225;-48
2021/01/17 05:15:41;;;;;;;24.45;17.45;;;3.10;92.40;;;;;;5080531;28;20196;-47
2021/01/17 05:18:08;;;;;;;22.13;16.05;;;3.10;92.50;;;;;;5081109;28;20621;-48
2021/01/17 05:20:35;;;;;;;27.75;20.77;;;3.10;92.40;;;;;;5071787;28;20315;-48
2021/01/17 05:23:01;;;;;;;20.58;16.90;;;3.10;92.30;;;;;;5080429;28;20243;-47
2021/01/17 05:25:28;;;;;;;27.25;18.77;;;3.10;92.30;;;;;;5080210;28;20235;-48
2021/01/17 05:27:58;;;;;;;25.30;19.65;;;3.20;92.50;;;;;;5074161;28;20248;-48
2021/01/17 05:30:24;;;;;;;23.67;18.35;;;3.20;92.50;;;;;;5077232;28;20614;-48
2021/01/17 05:32:53;;;;;;;27.88;19.40;;;3.20;92.50;;;;;;5080619;28;20603;-48
2021/01/17 05:35:20;;;;;;;24.65;18.95;;;3.10;92.60;;;;;;5081138;28;20233;-49
2021/01/17 05:37:47;;;;;;;20.45;17.88;;;3.10;92.80;;;;;;5077144;28;20583;-47
2021/01/17 05:40:15;;;;;;;24.00;18.35;;;3.20;93.00;;;;;;5077655;28;20276;-48
2021/01/17 05:42:43;;;;;;;28.10;22.05;;;3.20;92.90;;;;;;5078496;28;20220;-48
2021/01/17 05:45:12;;;;;;;21.55;16.95;;;3.30;92.80;;;;;;5077302;28;20237;-48
2021/01/17 05:47:39;;;;;;;23.55;17.35;;;3.30;92.70;;;;;;5078124;28;20218;-48
2021/01/17 05:50:07;;;;;;;21.85;18.30;;;3.20;93.00;;;;;;5081995;28;20764;-48
2021/01/17 05:52:34;;;;;;;24.83;19.80;;;3.20;93.10;;;;;;5078510;28;20252;-49
2021/01/17 05:55:01;;;;;;;24.83;17.50;;;3.20;93.30;;;;;;5069569;28;20223;-49
2021/01/17 05:57:28;;;;;;;19.80;14.38;;;3.30;93.30;;;;;;5075995;28;20221;-49
2021/01/17 05:59:55;;;;;;;20.67;16.73;;;3.20;93.00;;;;;;5078611;28;20251;-49
2021/01/17 06:02:22;;;;;;;26.55;19.60;;;3.20;93.10;;;;;;5075995;28;20596;-49
2021/01/17 06:04:50;;;;;;;32.45;21.50;;;3.10;93.20;;;;;;5077599;28;20234;-48
2021/01/17 06:07:17;;;;;;;27.65;21.77;;;3.10;93.40;;;;;;5080423;28;20615;-48
2021/01/17 06:09:44;;;;;;;33.60;22.63;;;3.10;93.40;;;;;;5080315;28;20302;-48
2021/01/17 06:12:11;;;;;;;30.45;22.10;;;3.20;93.50;;;;;;5076026;28;20263;-48
2021/01/17 06:14:38;;;;;;;24.85;18.40;;;3.20;93.40;;;;;;5077231;28;20229;-49
2021/01/17 06:17:05;;;;;;;29.80;20.88;;;3.20;93.40;;;;;;5080778;28;20225;-49
2021/01/17 06:19:33;;;;;;;29.42;20.38;;;3.20;93.80;;;;;;5077058;28;20273;-49
2021/01/17 06:22:01;;;;;;;24.05;18.20;;;3.20;93.40;;;;;;5082977;28;20240;-48
2021/01/17 06:24:36;;;;;;;25.30;20.58;;;3.20;93.80;;;;;;5080603;28;20205;-49
2021/01/17 06:27:04;;;;;;;27.88;21.27;;;3.30;93.40;;;;;;5079893;28;20228;-49
2021/01/17 06:29:38;;;;;;;25.58;19.38;;;3.20;93.40;;;;;;5078629;28;20196;-49
2021/01/17 06:32:15;;;;;;;24.73;18.50;;;3.30;93.60;;;;;;5081841;28;20221;-49
2021/01/17 06:34:50;;;;;;;24.67;18.63;;;3.30;93.50;;;;;;5084629;28;20197;-47
2021/01/17 06:37:17;;;;;;;28.55;19.70;;;3.40;93.40;;;;;;5080912;28;20237;-48
2021/01/17 06:39:47;;;;;;;25.10;19.00;;;3.40;93.10;;;;;;5080779;28;20313;-49
2021/01/17 06:42:15;;;;;;;25.23;18.65;;;3.30;93.10;;;;;;5080481;28;20241;-49
2021/01/17 06:44:41;;;;;;;28.08;20.08;;;3.40;93.20;;;;;;5080341;28;20224;-49
2021/01/17 06:47:18;;;;;;;26.13;18.83;;;3.40;93.20;;;;;;5081338;28;20275;-49
2021/01/17 06:49:45;;;;;;;28.50;19.90;;;3.40;93.00;;;;;;5072494;28;20291;-48
2021/01/17 06:52:14;;;;;;;29.40;21.83;;;3.40;93.10;;;;;;5082280;28;20194;-47
2021/01/17 06:54:42;;;;;;;29.65;21.35;;;3.40;92.90;;;;;;5081314;28;20504;-47
2021/01/17 06:57:09;;;;;;;26.52;21.23;;;3.50;93.00;;;;;;5081407;28;20202;-49
2021/01/17 06:59:38;;;;;;;28.38;20.15;;;3.50;93.10;;;;;;5083796;28;20229;-49
2021/01/17 07:02:41;;;;;;;28.60;20.33;;;3.50;93.00;;;;;;5075364;28;20202;-49
2021/01/17 07:05:09;;;;;;;29.00;20.10;;;3.50;93.10;;;;;;5077501;28;20733;-49
2021/01/17 07:07:42;;;;;;;24.75;18.98;;;3.50;93.10;;;;;;5072174;28;20244;-49
2021/01/17 07:10:09;;;;;;;30.63;21.40;;;3.40;93.10;;;;;;5080263;28;20248;-49
2021/01/17 07:12:45;;;;;;;24.83;20.85;;;3.50;93.20;;;;;;5075056;28;20350;-48
2021/01/17 07:15:13;;;;;;;24.17;19.33;;;3.40;93.10;;;;;;5083059;28;20247;-48
2021/01/17 07:17:41;;;;;;;29.27;21.25;;;3.50;93.10;;;;;;5075567;28;20229;-48
2021/01/17 07:20:09;;;;;;;28.25;19.98;;;3.50;93.30;;;;;;5080078;28;20916;-48
2021/01/17 07:22:36;;;;;;;26.70;20.30;;;3.50;93.40;;;;;;5068713;28;20276;-48
2021/01/17 07:25:04;;;;;;;25.17;19.92;;;3.50;93.20;;;;;;5070495;28;20681;-48
2021/01/17 07:27:57;;;;;;;29.35;21.77;;;3.50;93.20;;;;;;5078551;28;20240;-48
2021/01/17 07:30:37;;;;;;;31.98;23.23;;;3.50;93.20;;;;;;5079773;28;20324;-48
2021/01/17 07:33:04;;;;;;;27.98;20.95;;;3.60;93.20;;;;;;5083315;28;20560;-48
2021/01/17 07:35:36;;;;;;;36.22;21.70;;;3.60;93.10;;;;;;5080339;28;20276;-48
2021/01/17 07:38:08;;;;;;;29.15;21.63;;;3.60;93.10;;;;;;5077984;28;20240;-48
2021/01/17 07:40:50;;;;;;;26.77;19.65;;;3.60;92.90;;;;;;5080394;28;20235;-48
2021/01/17 07:43:21;;;;;;;28.70;21.25;;;3.60;92.90;;;;;;5075854;28;20221;-48
2021/01/17 07:45:49;;;;;;;28.52;21.73;;;3.50;92.90;;;;;;5071768;28;20230;-47
2021/01/17 07:48:16;;;;;;;27.40;19.58;;;3.50;93.00;;;;;;5079587;28;20238;-48
2021/01/17 07:50:43;;;;;;;30.40;20.65;;;3.50;93.00;;;;;;5075830;28;20517;-48
2021/01/17 07:53:17;;;;;;;28.30;19.58;;;3.40;93.20;;;;;;5068024;28;20299;-48
2021/01/17 07:55:44;;;;;;;28.23;20.17;;;3.40;93.30;;;;;;5074548;28;20669;-48
2021/01/17 07:58:11;;;;;;;29.98;23.20;;;3.40;93.40;;;;;;5081928;28;20230;-48
2021/01/17 08:00:39;;;;;;;30.65;22.13;;;3.50;93.50;;;;;;5081311;28;20284;-49
2021/01/17 08:03:06;;;;;;;27.13;21.95;;;3.50;93.60;;;;;;5079112;28;20248;-49
2021/01/17 08:05:48;;;;;;;31.70;24.95;;;3.50;93.60;;;;;;5077144;28;20228;-49
2021/01/17 08:08:46;;;;;;;31.75;21.10;;;3.60;93.50;;;;;;5077278;28;20441;-48
2021/01/17 08:11:38;;;;;;;31.83;23.15;;;3.60;93.30;;;;;;5071616;28;20273;-48
2021/01/17 08:14:25;;;;;;;30.08;21.33;;;3.60;93.40;;;;;;5061616;28;20216;-47
2021/01/17 08:17:09;;;;;;;29.98;21.10;;;3.60;93.20;;;;;;5079998;28;20225;-48
2021/01/17 08:19:37;;;;;;;29.02;21.42;;;3.70;93.40;;;;;;5079153;28;20236;-48
2021/01/17 08:22:46;;;;;;;31.83;23.05;;;3.70;93.30;;;;;;5071163;28;20272;-50
2021/01/17 08:25:14;;;;;;;27.70;21.55;;;3.70;93.30;;;;;;5071996;28;20260;-49
2021/01/17 08:27:42;;;;;;;26.58;20.42;;;3.70;93.40;;;;;;5073765;28;20206;-49
2021/01/17 08:30:16;;;;;;;28.20;22.45;;;3.70;93.40;;;;;;5084087;28;20259;-49
2021/01/17 08:32:44;;;;;;;31.55;23.85;;;3.70;93.30;;;;;;5067525;28;20201;-49
2021/01/17 08:35:30;;;;;;;28.63;22.15;;;3.70;93.30;;;;;;5073471;28;20291;-49
2021/01/17 08:37:58;;;;;;;32.83;24.63;;;3.60;93.20;;;;;;5084957;28;20208;-49
2021/01/17 08:40:43;;;;;;;37.43;24.97;;;3.60;93.40;;;;;;5085977;28;20218;-49
2021/01/17 08:43:12;;;;;;;31.50;22.42;;;3.60;93.20;;;;;;5090691;28;20661;-49
2021/01/17 08:45:39;;;;;;;30.80;22.25;;;3.50;93.30;;;;;;5070609;28;20787;-49
2021/01/17 08:48:31;;;;;;;31.58;23.85;;;3.60;93.90;;;;;;5073003;28;20252;-49
2021/01/17 08:50:59;;;;;;;25.42;19.40;;;3.60;93.60;;;;;;5065900;28;20238;-49
2021/01/17 08:53:29;;;;;;;32.08;22.90;;;3.60;93.50;;;;;;5048578;28;20246;-49
2021/01/17 08:55:57;;;;;;;27.13;22.02;;;3.70;93.50;;;;;;5065324;28;20578;-49
2021/01/17 08:58:52;;;;;;;31.73;22.88;;;3.70;93.50;;;;;;5060249;28;20241;-49
2021/01/17 09:01:20;;;;;;;28.88;20.48;;;3.80;93.40;;;;;;5050310;28;20575;-49
2021/01/17 09:03:56;;;;;;;30.02;23.45;;;3.90;93.30;;;;;;5078279;28;20202;-49
2021/01/17 09:06:24;;;;;;;28.73;21.85;;;3.90;93.20;;;;;;5080505;28;20209;-49
2021/01/17 09:09:05;;;;;;;32.13;22.02;;;3.90;93.20;;;;;;5069849;28;20219;-49
2021/01/17 09:11:37;;;;;;;31.02;24.05;;;3.90;93.10;;;;;;5070275;28;20314;-49
2021/01/17 09:14:26;;;;;;;30.85;22.25;;;3.90;93.10;;;;;;5069163;28;20202;-49
2021/01/17 09:17:03;;;;;;;26.93;21.23;;;3.90;93.10;;;;;;5050058;28;20684;-49
2021/01/17 09:19:31;;;;;;;28.23;20.90;;;3.80;92.90;;;;;;5065771;28;21268;-49
2021/01/17 09:22:00;;;;;;;30.00;22.57;;;3.80;93.10;;;;;;5069193;28;20225;-48
2021/01/17 09:24:28;;;;;;;29.33;21.67;;;3.70;93.20;;;;;;5070978;28;20708;-47
2021/01/17 09:26:55;;;;;;;31.87;22.27;;;3.70;93.20;;;;;;5070990;28;20769;-48
2021/01/17 09:29:26;;;;;;;29.30;17.67;;;3.70;93.30;;;;;;5069575;28;20690;-49
2021/01/17 09:31:55;;;;;;;28.55;21.27;;;3.80;93.30;;;;;;5070006;28;20276;-49
2021/01/17 09:34:23;;;;;;;35.67;23.05;;;3.80;93.20;;;;;;5068688;28;20203;-49
2021/01/17 09:36:51;;;;;;;32.10;22.65;;;3.80;93.10;;;;;;5069852;28;20207;-49
2021/01/17 09:39:45;;;;;;;36.88;24.42;;;3.80;93.00;;;;;;5069733;28;20266;-49
2021/01/17 09:42:12;;;;;;;30.10;22.63;;;3.70;93.10;;;;;;5022490;28;20218;-48
2021/01/17 09:44:39;;;;;;;26.42;19.50;;;3.70;93.20;;;;;;5069066;28;20227;-49
2021/01/17 09:47:16;;;;;;;32.15;25.20;;;3.70;93.30;;;;;;5069727;28;20214;-49
2021/01/17 09:49:42;;;;;;;31.50;22.52;;;3.70;93.30;;;;;;5069121;28;20202;-49
2021/01/17 09:52:14;;;;;;;31.38;24.00;;;3.70;93.40;;;;;;5069872;28;20214;-49
2021/01/17 09:54:41;;;;;;;35.23;23.63;;;3.80;93.60;;;;;;5068549;28;20199;-49
2021/01/17 09:57:15;;;;;;;33.13;24.23;;;3.90;93.40;;;;;;5069171;28;20790;-49
2021/01/17 09:59:41;;;;;;;33.35;25.50;;;3.90;93.20;;;;;;5069555;28;20286;-48
2021/01/17 10:02:09;;;;;;;35.08;26.00;;;4.00;93.10;;;;;;5072461;28;20210;-48
2021/01/17 10:04:36;;;;;;;29.23;23.05;;;4.10;93.00;;;;;;5073213;28;20191;-49
2021/01/17 10:07:03;;;;;;;29.43;20.70;;;4.20;92.80;;;;;;5073231;28;20284;-49
2021/01/17 10:09:31;;;;;;;32.53;24.05;;;4.30;92.50;;;;;;5073715;28;20662;-49
2021/01/17 10:11:59;;;;;;;36.33;23.83;;;4.30;92.20;;;;;;5073600;28;20239;-49
2021/01/17 10:14:28;;;;;;;30.40;21.05;;;4.30;92.00;;;;;;5073105;28;20736;-48
2021/01/17 10:16:55;;;;;;;28.33;22.33;;;4.30;91.80;;;;;;5072522;28;20207;-48
2021/01/17 10:19:26;;;;;;;33.00;22.80;;;4.30;91.70;;;;;;5075225;28;20198;-49
2021/01/17 10:21:52;;;;;;;28.37;21.60;;;4.20;91.80;;;;;;5093401;28;21147;-48
2021/01/17 10:24:20;;;;;;;35.13;23.50;;;4.20;91.70;;;;;;5083396;28;20637;-48
2021/01/17 10:26:52;;;;;;;31.48;20.70;;;4.20;91.80;;;;;;5073027;28;21067;-49
2021/01/17 10:29:25;;;;;;;29.48;21.67;;;4.10;91.70;;;;;;5072882;28;20254;-49
2021/01/17 10:31:56;;;;;;;31.50;25.43;;;4.10;92.00;;;;;;5060318;28;20721;-49
2021/01/17 10:34:27;;;;;;;31.15;22.48;;;4.10;92.30;;;;;;5052561;28;20683;-49
2021/01/17 10:36:58;;;;;;;32.13;21.75;;;4.00;92.50;;;;;;5060433;28;20707;-50
2021/01/17 10:39:25;;;;;;;26.05;22.50;;;4.10;92.60;;;;;;5072301;28;20230;-49
2021/01/17 10:42:00;;;;;;;31.77;25.53;;;4.20;92.60;;;;;;5072706;28;20207;-49
2021/01/17 10:44:27;;;;;;;31.85;25.00;;;4.20;92.50;;;;;;5072546;28;20693;-49
2021/01/17 10:47:00;;;;;;;34.17;24.00;;;4.40;92.40;;;;;;5071788;28;20678;-49
2021/01/17 10:49:26;;;;;;;31.83;23.43;;;4.40;92.20;;;;;;5071723;28;20203;-49
2021/01/17 10:51:53;;;;;;;34.95;24.08;;;4.50;91.70;;;;;;5071831;28;20775;-49
2021/01/17 10:54:32;;;;;;;30.17;22.80;;;4.50;91.60;;;;;;5072396;28;20540;-49
2021/01/17 10:57:02;;;;;;;30.73;24.53;;;4.60;91.70;;;;;;5072492;28;20633;-49
2021/01/17 10:59:28;;;;;;;32.00;24.70;;;4.60;91.50;;;;;;5072439;28;20690;-49
2021/01/17 11:01:55;;;;;;;28.87;22.10;;;4.60;91.20;;;;;;5072754;28;20195;-49
2021/01/17 11:04:22;;;;;;;31.80;23.13;;;4.70;91.20;;;;;;5071808;28;20621;-49
2021/01/17 11:06:49;;;;;;;29.20;21.23;;;4.70;91.40;;;;;;5072330;28;20663;-48
2021/01/17 11:09:16;;;;;;;29.93;22.70;;;4.70;91.20;;;;;;5071744;28;20683;-49
2021/01/17 11:11:44;;;;;;;29.20;21.73;;;4.60;91.00;;;;;;5071423;28;20661;-48
2021/01/17 11:14:12;;;;;;;28.50;21.70;;;4.60;91.10;;;;;;5070914;28;21192;-48
2021/01/17 11:16:39;;;;;;;33.90;24.47;;;4.70;91.30;;;;;;5072354;28;20617;-49
2021/01/17 11:19:06;;;;;;;32.20;24.80;;;4.60;91.00;;;;;;5072444;28;20693;-49
2021/01/17 11:21:33;;;;;;;28.97;22.93;;;4.70;91.20;;;;;;5072920;28;20652;-49
2021/01/17 11:24:00;;;;;;;34.30;25.03;;;4.70;91.20;;;;;;5072253;28;21117;-49
2021/01/17 11:26:27;;;;;;;30.57;23.30;;;4.80;91.30;;;;;;5073581;28;20724;-49
2021/01/17 11:28:55;;;;;;;30.67;22.00;;;4.90;91.10;;;;;;5072373;28;20617;-49
2021/01/17 11:31:23;;;;;;;29.47;22.20;;;5.00;91.00;;;;;;5073141;28;20690;-49
2021/01/17 11:33:50;;;;;;;29.30;23.40;;;5.10;90.60;;;;;;5073139;28;20624;-49
2021/01/17 11:36:17;;;;;;;29.53;21.20;;;5.20;90.60;;;;;;5073474;28;20800;-49
2021/01/17 11:38:45;;;;;;;28.20;19.67;;;5.20;90.20;;;;;;5073154;28;20794;-49
2021/01/17 11:41:12;;;;;;;28.10;20.70;;;5.20;89.70;;;;;;5072915;28;20645;-49
2021/01/17 11:43:39;;;;;;;27.53;21.63;;;5.20;89.50;;;;;;5072792;28;20708;-49
2021/01/17 11:46:06;;;;;;;28.50;20.73;;;5.20;90.40;;;;;;5072524;28;20686;-49
2021/01/17 11:48:34;;;;;;;28.30;20.90;;;5.40;91.00;;;;;;5072820;28;20625;-50
2021/01/17 11:51:01;;;;;;;30.93;22.57;;;5.40;90.10;;;;;;5070520;28;20714;-48
2021/01/17 11:53:27;;;;;;;24.40;18.80;;;5.40;89.10;;;;;;5071188;28;20649;-48
2021/01/17 11:55:54;;;;;;;30.57;23.00;;;5.40;89.00;;;;;;5071011;28;20629;-48
2021/01/17 11:58:21;;;;;;;27.23;20.03;;;5.40;88.60;;;;;;5071185;28;20625;-49
2021/01/17 12:00:49;;;;;;;27.83;19.87;;;5.50;89.10;;;;;;5070505;28;20672;-49
2021/01/17 12:03:29;;;;;;;27.30;19.50;;;5.40;88.30;;;;;;5070790;28;20655;-49
2021/01/17 12:06:03;;;;;;;26.77;21.00;;;5.40;88.40;;;;;;5068830;28;21110;-49
2021/01/17 12:08:59;;;;;;;25.80;21.10;;;5.50;89.50;;;;;;5070417;28;20633;-49
2021/01/17 12:11:35;;;;;;;29.77;20.70;;;5.50;90.00;;;;;;5070437;28;20966;-50
2021/01/17 12:14:03;;;;;;;26.23;19.50;;;5.30;88.70;;;;;;5070502;28;20626;-50
2021/01/17 12:16:30;;;;;;;26.50;21.63;;;5.20;89.50;;;;;;5051150;28;20661;-49
2021/01/17 12:18:57;;;;;;;30.70;20.70;;;5.20;90.20;;;;;;5050869;28;20630;-50
2021/01/17 12:21:25;;;;;;;27.50;21.10;;;5.30;90.40;;;;;;5051735;28;20650;-50
2021/01/17 12:23:52;;;;;;;30.37;21.37;;;5.30;90.40;;;;;;5056875;28;20651;-48
2021/01/17 12:26:19;;;;;;;27.87;19.90;;;5.40;90.20;;;;;;5070119;28;20629;-48
2021/01/17 12:28:47;;;;;;;31.80;21.47;;;5.40;90.00;;;;;;5070816;28;20683;-48
2021/01/17 12:31:13;;;;;;;27.00;20.03;;;5.40;89.40;;;;;;5070097;28;20649;-48
2021/01/17 12:33:40;;;;;;;26.83;20.93;;;5.40;90.00;;;;;;5067713;28;20625;-49
2021/01/17 12:36:08;;;;;;;25.13;21.00;;;5.40;89.30;;;;;;5070557;28;20699;-49
2021/01/17 12:38:35;;;;;;;25.70;19.90;;;5.50;89.00;;;;;;5062073;28;20625;-48
2021/01/17 12:41:07;;;;;;;24.57;19.37;;;5.50;88.90;;;;;;5054972;28;20654;-49
2021/01/17 12:43:33;;;;;;;22.53;15.00;;;5.50;89.00;;;;;;5050944;28;20634;-49
2021/01/17 12:46:00;;;;;;;22.97;18.67;;;5.40;89.00;;;;;;5066997;28;20641;-49
2021/01/17 12:48:27;;;;;;;25.40;19.33;;;5.20;88.40;;;;;;5070062;28;20645;-49